createdAt,value
2023-05-01T00:01:46.076Z,20.92
2023-05-01T00:04:13.132Z,20.73
2023-05-01T00:06:39.911Z,20.40
2023-05-01T00:09:07.283Z,20.80
2023-05-01T00:11:34.848Z,20.45
2023-05-01T00:14:01.283Z,21.05
2023-05-01T00:16:27.786Z,21.25
2023-05-01T00:18:55.272Z,19.65
2023-05-01T00:21:21.789Z,21.88
2023-05-01T00:23:48.290Z,20.55
2023-05-01T00:26:14.834Z,22.05
2023-05-01T00:28:41.649Z,20.70
2023-05-01T00:31:08.231Z,20.42
2023-05-01T00:33:34.742Z,21.00
2023-05-01T00:36:01.179Z,19.70
2023-05-01T00:38:27.678Z,20.92
2023-05-01T00:40:54.094Z,21.73
2023-05-01T00:43:21.029Z,22.75
2023-05-01T00:45:47.609Z,21.35
2023-05-01T00:48:14.715Z,21.98
2023-05-01T00:50:41.225Z,19.10
2023-05-01T00:53:07.628Z,20.95
2023-05-01T00:55:35.904Z,19.40
2023-05-01T00:58:02.954Z,20.17
2023-05-01T01:00:29.728Z,18.10
2023-05-01T01:02:56.424Z,20.02
2023-05-01T01:05:24.511Z,19.70
2023-05-01T01:08:06.448Z,21.40
2023-05-01T01:10:41.027Z,19.77
2023-05-01T01:13:07.512Z,19.55
2023-05-01T01:15:35.765Z,17.35
2023-05-01T01:18:02.278Z,20.00
2023-05-01T01:20:36.114Z,19.08
2023-05-01T01:23:02.615Z,16.15
2023-05-01T01:25:55.970Z,19.15
2023-05-01T01:28:40.992Z,19.65
2023-05-01T01:31:12.235Z,20.17
2023-05-01T01:33:38.774Z,20.13
2023-05-01T01:36:11.016Z,20.95
2023-05-01T01:38:45.801Z,20.13
2023-05-01T01:41:14.814Z,19.55
2023-05-01T01:43:43.662Z,20.63
2023-05-01T01:46:10.884Z,20.42
2023-05-01T01:48:39.418Z,20.40
2023-05-01T01:51:08.683Z,17.25
2023-05-01T01:53:37.680Z,22.10
2023-05-01T01:56:06.307Z,18.92
2023-05-01T01:58:35.053Z,19.05
2023-05-01T02:01:01.906Z,19.58
2023-05-01T02:03:29.530Z,19.95
2023-05-01T02:05:56.634Z,19.45
2023-05-01T02:08:23.635Z,19.85
2023-05-01T02:10:51.010Z,21.77
2023-05-01T02:13:17.928Z,24.63
2023-05-01T02:15:45.884Z,24.30
2023-05-01T02:18:13.216Z,24.45
2023-05-01T02:20:41.304Z,23.95
2023-05-01T02:23:09.059Z,24.23
2023-05-01T02:25:36.941Z,24.58
2023-05-01T02:28:05.501Z,22.60
2023-05-01T02:30:32.503Z,22.52
2023-05-01T02:32:58.990Z,23.33
2023-05-01T02:35:25.479Z,21.98
2023-05-01T02:37:51.981Z,21.85
2023-05-01T02:40:18.482Z,19.92
2023-05-01T02:42:45.729Z,18.63
2023-05-01T02:45:19.768Z,21.15
2023-05-01T02:47:48.659Z,20.55
2023-05-01T02:50:15.870Z,18.25
2023-05-01T02:52:42.973Z,20.15
2023-05-01T02:55:09.909Z,21.75
2023-05-01T02:57:36.725Z,19.23
2023-05-01T03:00:03.791Z,22.08
2023-05-01T03:02:30.212Z,21.67
2023-05-01T03:04:56.814Z,21.90
2023-05-01T03:07:23.256Z,23.25
2023-05-01T03:09:49.752Z,24.58
2023-05-01T03:12:16.301Z,26.35
2023-05-01T03:14:42.824Z,21.02
2023-05-01T03:17:09.363Z,22.23
2023-05-01T03:19:37.123Z,24.23
2023-05-01T03:22:03.913Z,24.13
2023-05-01T03:24:30.337Z,22.02
2023-05-01T03:26:56.771Z,21.63
2023-05-01T03:29:23.309Z,22.70
2023-05-01T03:31:49.928Z,24.75
2023-05-01T03:34:16.490Z,22.98
2023-05-01T03:36:42.940Z,23.05
2023-05-01T03:39:09.478Z,24.85
2023-05-01T03:41:36.071Z,25.50
2023-05-01T03:44:02.574Z,24.83
2023-05-01T03:46:29.187Z,25.38
2023-05-01T03:48:55.685Z,23.27
2023-05-01T03:51:22.380Z,23.20
2023-05-01T03:53:48.925Z,22.83
2023-05-01T03:56:16.085Z,22.73
2023-05-01T03:58:42.636Z,20.83
2023-05-01T04:01:09.249Z,20.48
2023-05-01T04:03:35.786Z,20.27
2023-05-01T04:06:02.577Z,21.20
2023-05-01T04:08:29.083Z,19.48
2023-05-01T04:10:55.561Z,20.40
2023-05-01T04:13:22.058Z,18.55
2023-05-01T04:15:48.726Z,17.60
2023-05-01T04:18:15.378Z,15.43
2023-05-01T04:20:42.052Z,16.70
2023-05-01T04:23:09.611Z,13.13
2023-05-01T04:25:36.795Z,14.20
2023-05-01T04:28:03.316Z,12.07
2023-05-01T04:30:30.232Z,10.20
2023-05-01T04:32:57.622Z,10.65
2023-05-01T04:35:24.518Z,10.55
2023-05-01T04:37:51.330Z,9.60
2023-05-01T04:40:17.841Z,10.23
2023-05-01T04:42:44.341Z,9.75
2023-05-01T04:45:10.992Z,9.52
2023-05-01T04:47:37.530Z,8.82
2023-05-01T04:50:04.437Z,8.10
2023-05-01T04:52:30.849Z,8.70
2023-05-01T04:54:57.998Z,9.00
2023-05-01T04:57:24.521Z,8.70
2023-05-01T04:59:51.544Z,7.38
2023-05-01T05:02:18.050Z,7.88
2023-05-01T05:04:44.530Z,9.10
2023-05-01T05:07:10.984Z,7.38
2023-05-01T05:09:37.545Z,9.98
2023-05-01T05:12:04.764Z,10.27
2023-05-01T05:14:31.436Z,11.43
2023-05-01T05:16:58.319Z,10.15
2023-05-01T05:19:24.987Z,11.43
2023-05-01T05:21:51.479Z,10.32
2023-05-01T05:24:18.004Z,10.40
2023-05-01T05:26:44.484Z,10.77
2023-05-01T05:29:11.057Z,10.35
2023-05-01T05:31:37.780Z,10.60
2023-05-01T05:34:04.377Z,9.90
2023-05-01T05:36:31.022Z,11.10
2023-05-01T05:38:57.522Z,9.85
2023-05-01T05:41:24.097Z,9.77
2023-05-01T05:43:50.605Z,10.55
2023-05-01T05:46:17.138Z,9.25
2023-05-01T05:48:43.613Z,10.02
2023-05-01T05:51:10.070Z,10.43
2023-05-01T05:53:36.608Z,11.52
2023-05-01T05:56:03.154Z,12.57
2023-05-01T05:58:29.680Z,10.18
2023-05-01T06:00:56.157Z,10.63
2023-05-01T06:03:23.155Z,10.55
2023-05-01T06:05:49.995Z,9.95
2023-05-01T18:40:27.091Z,4.15
2023-05-01T18:42:53.724Z,4.03
2023-05-01T18:45:20.184Z,3.53
2023-05-01T18:47:46.921Z,3.50
2023-05-01T18:50:13.816Z,4.03
2023-05-01T18:52:41.882Z,3.95
2023-05-01T18:55:09.351Z,4.55
2023-05-01T18:57:36.200Z,4.32
2023-05-01T19:00:02.912Z,5.32
2023-05-01T19:02:29.450Z,4.68
2023-05-01T19:04:57.848Z,5.05
2023-05-01T19:07:25.854Z,4.82
2023-05-01T19:09:52.410Z,4.70
2023-05-01T19:12:18.832Z,4.35
2023-05-01T19:14:45.369Z,4.45
2023-05-01T19:17:11.858Z,4.38
2023-05-01T19:19:38.315Z,4.90
2023-05-01T19:22:04.802Z,5.20
2023-05-01T19:24:31.278Z,4.22
2023-05-01T19:26:57.708Z,5.25
2023-05-01T19:29:24.255Z,5.68
2023-05-01T19:31:50.820Z,5.97
2023-05-01T19:34:17.257Z,6.15
2023-05-01T19:36:43.687Z,5.75
2023-05-01T19:39:10.293Z,5.68
2023-05-01T19:41:37.019Z,4.97
2023-05-01T19:44:03.572Z,4.78
2023-05-01T19:46:30.085Z,5.18
2023-05-01T19:48:56.484Z,5.03
2023-05-01T19:51:22.967Z,4.90
2023-05-01T19:53:49.388Z,4.57
2023-05-01T19:56:15.871Z,4.97
2023-05-01T19:58:42.362Z,5.32
2023-05-01T20:01:11.693Z,4.90
2023-05-01T20:03:39.008Z,4.93
2023-05-01T20:06:06.498Z,4.72
2023-05-01T20:08:33.579Z,5.10
2023-05-01T20:11:00.394Z,5.38
2023-05-01T20:13:26.888Z,5.25
2023-05-01T20:15:53.466Z,5.40
2023-05-01T20:18:20.073Z,5.10
2023-05-01T20:20:46.828Z,5.05
2023-05-01T20:23:14.803Z,4.97
2023-05-01T20:25:42.300Z,4.90
2023-05-01T20:28:09.786Z,4.50
2023-05-01T20:30:40.087Z,5.45
2023-05-01T20:33:07.854Z,5.07
2023-05-01T20:35:34.734Z,5.57
2023-05-01T20:38:01.937Z,5.30
2023-05-01T20:40:28.957Z,4.20
2023-05-01T20:42:55.688Z,4.70
2023-05-01T20:45:22.190Z,3.83
2023-05-01T20:47:48.829Z,4.75
2023-05-01T20:50:17.235Z,4.05
2023-05-01T20:52:44.343Z,4.47
2023-05-01T20:55:11.592Z,4.35
2023-05-01T20:57:38.814Z,4.30
2023-05-01T21:00:05.730Z,3.90
2023-05-01T21:02:32.273Z,4.32
2023-05-01T21:04:58.818Z,4.28
2023-05-01T21:07:25.390Z,3.80
2023-05-01T21:09:51.905Z,3.92
2023-05-01T21:12:18.339Z,4.18
2023-05-01T21:14:45.060Z,3.63
2023-05-01T21:17:11.781Z,3.75
2023-05-01T21:19:47.345Z,4.18
2023-05-01T21:22:15.600Z,4.10
2023-05-01T21:24:47.737Z,3.90
2023-05-01T21:27:14.259Z,3.85
2023-05-01T21:29:40.806Z,3.28
2023-05-01T21:32:07.798Z,3.72
2023-05-01T21:34:34.555Z,4.00
2023-05-01T21:37:01.058Z,3.45
2023-05-01T21:39:27.656Z,3.60
2023-05-01T21:41:54.172Z,3.95
2023-05-01T21:44:21.294Z,3.67
2023-05-01T21:46:47.872Z,3.50
2023-05-01T21:49:18.588Z,3.70
2023-05-01T21:51:45.156Z,3.92
2023-05-01T21:54:11.915Z,3.50
2023-05-01T21:56:38.394Z,3.05
2023-05-01T21:59:05.269Z,3.38
2023-05-01T22:01:32.009Z,3.72
2023-05-01T22:03:58.681Z,3.28
2023-05-01T22:06:25.693Z,3.28
2023-05-01T22:08:52.468Z,3.17
2023-05-01T22:11:20.086Z,3.70
2023-05-01T22:13:46.628Z,3.20
2023-05-01T22:16:14.169Z,3.58
2023-05-01T22:18:40.817Z,3.17
2023-05-01T22:21:07.411Z,3.47
2023-05-01T22:23:33.889Z,3.50
2023-05-01T22:26:00.504Z,2.78
2023-05-01T22:28:27.233Z,3.22
2023-05-01T22:30:54.495Z,3.28
2023-05-01T22:33:21.148Z,3.63
2023-05-01T22:35:47.786Z,2.80
2023-05-01T22:38:14.586Z,3.10
2023-05-01T22:40:41.131Z,3.15
2023-05-01T22:43:08.160Z,3.15
2023-05-01T22:45:34.968Z,3.03
2023-05-01T22:48:01.483Z,3.08
2023-05-01T22:50:27.928Z,3.20
2023-05-01T22:52:54.394Z,3.40
2023-05-01T22:55:20.915Z,2.92
2023-05-01T22:57:47.495Z,3.33
2023-05-01T23:00:14.360Z,3.33
2023-05-01T23:02:41.025Z,3.45
2023-05-01T23:05:08.061Z,3.85
2023-05-01T23:07:34.633Z,3.53
2023-05-01T23:10:01.324Z,3.30
2023-05-01T23:12:28.455Z,2.75
2023-05-01T23:14:55.175Z,3.08
2023-05-01T23:17:22.125Z,3.05
2023-05-01T23:19:48.698Z,3.08
2023-05-01T23:22:15.411Z,3.33
2023-05-01T23:24:43.815Z,3.30
2023-05-01T23:27:11.908Z,2.70
2023-05-01T23:29:39.675Z,3.35
2023-05-01T23:32:08.341Z,3.00
2023-05-01T23:34:34.929Z,3.20
2023-05-01T23:37:01.444Z,3.20
2023-05-01T23:39:27.879Z,3.58
2023-05-01T23:41:54.404Z,3.38
2023-05-01T23:44:20.961Z,2.92
2023-05-01T23:46:47.782Z,3.50
2023-05-01T23:49:14.295Z,3.33
2023-05-01T23:51:41.008Z,3.50
2023-05-01T23:54:07.776Z,3.33
2023-05-01T23:56:34.356Z,2.58
2023-05-01T23:59:00.852Z,2.75
